sensor_id;sensor_type;location;lat;lon;timestamp;P1;durP1;ratioP1;P2;durP2;ratioP2
46561;SDS011;32289;42.688;23.330;2023-12-29T00:02:10;69.78;;;30.90;;
46561;SDS011;32289;42.688;23.330;2023-12-29T00:05:51;66.82;;;29.65;;
46561;SDS011;32289;42.688;23.330;2023-12-29T00:09:32;80.00;;;31.33;;
46561;SDS011;32289;42.688;23.330;2023-12-29T00:13:18;69.13;;;30.73;;
46561;SDS011;32289;42.688;23.330;2023-12-29T00:17:03;64.93;;;30.73;;
46561;SDS011;32289;42.688;23.330;2023-12-29T00:20:43;58.83;;;30.73;;
46561;SDS011;32289;42.688;23.330;2023-12-29T00:24:24;91.82;;;35.72;;
46561;SDS011;32289;42.688;23.330;2023-12-29T00:28:05;85.80;;;35.78;;
46561;SDS011;32289;42.688;23.330;2023-12-29T00:31:46;72.63;;;34.65;;
46561;SDS011;32289;42.688;23.330;2023-12-29T00:35:27;73.30;;;32.03;;
46561;SDS011;32289;42.688;23.330;2023-12-29T00:39:10;84.88;;;34.83;;
46561;SDS011;32289;42.688;23.330;2023-12-29T00:42:52;88.97;;;38.10;;
46561;SDS011;32289;42.688;23.330;2023-12-29T00:46:33;84.10;;;37.28;;
46561;SDS011;32289;42.688;23.330;2023-12-29T00:50:14;86.03;;;35.97;;
46561;SDS011;32289;42.688;23.330;2023-12-29T00:53:55;93.13;;;39.85;;
46561;SDS011;32289;42.688;23.330;2023-12-29T00:57:35;80.90;;;36.38;;
46561;SDS011;32289;42.688;23.330;2023-12-29T01:01:16;81.20;;;36.20;;
46561;SDS011;32289;42.688;23.330;2023-12-29T01:04:57;78.90;;;38.25;;
46561;SDS011;32289;42.688;23.330;2023-12-29T01:08:37;88.22;;;37.70;;
46561;SDS011;32289;42.688;23.330;2023-12-29T01:12:18;82.88;;;40.13;;
46561;SDS011;32289;42.688;23.330;2023-12-29T01:15:59;97.25;;;40.65;;
46561;SDS011;32289;42.688;23.330;2023-12-29T01:19:39;95.68;;;42.92;;
46561;SDS011;32289;42.688;23.330;2023-12-29T01:23:20;87.60;;;39.10;;
46561;SDS011;32289;42.688;23.330;2023-12-29T01:27:01;94.53;;;37.38;;
46561;SDS011;32289;42.688;23.330;2023-12-29T01:30:44;87.78;;;40.42;;
46561;SDS011;32289;42.688;23.330;2023-12-29T01:34:24;93.18;;;40.75;;
46561;SDS011;32289;42.688;23.330;2023-12-29T01:38:12;96.35;;;41.90;;
46561;SDS011;32289;42.688;23.330;2023-12-29T01:41:54;108.82;;;42.22;;
46561;SDS011;32289;42.688;23.330;2023-12-29T01:45:38;93.97;;;41.13;;
46561;SDS011;32289;42.688;23.330;2023-12-29T01:49:19;94.93;;;41.47;;
46561;SDS011;32289;42.688;23.330;2023-12-29T01:53:01;97.65;;;42.55;;
46561;SDS011;32289;42.688;23.330;2023-12-29T01:56:43;85.70;;;39.85;;
46561;SDS011;32289;42.688;23.330;2023-12-29T02:00:25;85.68;;;38.05;;
46561;SDS011;32289;42.688;23.330;2023-12-29T02:04:06;78.90;;;35.05;;
46561;SDS011;32289;42.688;23.330;2023-12-29T02:07:47;90.07;;;40.05;;
46561;SDS011;32289;42.688;23.330;2023-12-29T02:11:31;88.65;;;39.65;;
46561;SDS011;32289;42.688;23.330;2023-12-29T02:15:12;94.25;;;41.22;;
46561;SDS011;32289;42.688;23.330;2023-12-29T02:18:56;85.13;;;36.88;;
46561;SDS011;32289;42.688;23.330;2023-12-29T02:22:40;94.72;;;37.55;;
46561;SDS011;32289;42.688;23.330;2023-12-29T02:26:21;77.88;;;35.10;;
46561;SDS011;32289;42.688;23.330;2023-12-29T02:30:08;81.85;;;38.28;;
46561;SDS011;32289;42.688;23.330;2023-12-29T02:33:49;95.43;;;39.47;;
46561;SDS011;32289;42.688;23.330;2023-12-29T02:37:33;89.53;;;36.58;;
46561;SDS011;32289;42.688;23.330;2023-12-29T02:41:16;104.32;;;45.83;;
46561;SDS011;32289;42.688;23.330;2023-12-29T02:44:57;116.07;;;49.90;;
46561;SDS011;32289;42.688;23.330;2023-12-29T02:48:38;120.80;;;50.60;;
46561;SDS011;32289;42.688;23.330;2023-12-29T02:52:18;115.20;;;45.88;;
46561;SDS011;32289;42.688;23.330;2023-12-29T02:55:59;120.32;;;45.40;;
46561;SDS011;32289;42.688;23.330;2023-12-29T02:59:40;108.20;;;46.33;;
46561;SDS011;32289;42.688;23.330;2023-12-29T03:03:20;97.63;;;42.70;;
46561;SDS011;32289;42.688;23.330;2023-12-29T03:07:01;117.10;;;43.83;;
46561;SDS011;32289;42.688;23.330;2023-12-29T03:10:42;93.93;;;40.75;;
46561;SDS011;32289;42.688;23.330;2023-12-29T03:14:22;95.40;;;43.10;;
46561;SDS011;32289;42.688;23.330;2023-12-29T03:18:03;102.50;;;42.55;;
46561;SDS011;32289;42.688;23.330;2023-12-29T03:21:44;92.93;;;38.97;;
46561;SDS011;32289;42.688;23.330;2023-12-29T03:25:25;92.45;;;37.45;;
46561;SDS011;32289;42.688;23.330;2023-12-29T03:29:06;87.97;;;38.22;;
46561;SDS011;32289;42.688;23.330;2023-12-29T03:32:46;90.70;;;36.05;;
46561;SDS011;32289;42.688;23.330;2023-12-29T03:36:27;78.13;;;33.40;;
46561;SDS011;32289;42.688;23.330;2023-12-29T03:40:08;86.15;;;35.17;;
46561;SDS011;32289;42.688;23.330;2023-12-29T03:43:49;86.18;;;35.83;;
46561;SDS011;32289;42.688;23.330;2023-12-29T03:47:30;89.68;;;35.60;;
46561;SDS011;32289;42.688;23.330;2023-12-29T03:51:11;82.43;;;37.60;;
46561;SDS011;32289;42.688;23.330;2023-12-29T03:54:52;96.60;;;38.47;;
46561;SDS011;32289;42.688;23.330;2023-12-29T03:58:33;95.15;;;38.15;;
46561;SDS011;32289;42.688;23.330;2023-12-29T04:02:15;81.68;;;35.90;;
46561;SDS011;32289;42.688;23.330;2023-12-29T04:05:57;90.65;;;35.78;;
46561;SDS011;32289;42.688;23.330;2023-12-29T04:09:38;79.32;;;36.47;;
46561;SDS011;32289;42.688;23.330;2023-12-29T04:13:19;96.75;;;40.45;;
46561;SDS011;32289;42.688;23.330;2023-12-29T04:16:59;89.60;;;38.38;;
46561;SDS011;32289;42.688;23.330;2023-12-29T04:20:43;96.32;;;40.13;;
46561;SDS011;32289;42.688;23.330;2023-12-29T04:24:24;91.22;;;37.90;;
46561;SDS011;32289;42.688;23.330;2023-12-29T04:28:05;85.03;;;39.00;;
46561;SDS011;32289;42.688;23.330;2023-12-29T04:31:46;94.93;;;39.92;;
46561;SDS011;32289;42.688;23.330;2023-12-29T04:35:28;100.65;;;39.03;;
46561;SDS011;32289;42.688;23.330;2023-12-29T04:39:11;87.78;;;36.83;;
46561;SDS011;32289;42.688;23.330;2023-12-29T04:42:52;87.40;;;38.00;;
46561;SDS011;32289;42.688;23.330;2023-12-29T04:46:33;91.93;;;36.55;;
46561;SDS011;32289;42.688;23.330;2023-12-29T04:50:13;83.00;;;37.33;;
46561;SDS011;32289;42.688;23.330;2023-12-29T04:53:54;92.38;;;35.10;;
46561;SDS011;32289;42.688;23.330;2023-12-29T04:57:35;72.50;;;32.38;;
46561;SDS011;32289;42.688;23.330;2023-12-29T05:01:16;72.63;;;33.47;;
46561;SDS011;32289;42.688;23.330;2023-12-29T05:04:56;80.20;;;33.40;;
46561;SDS011;32289;42.688;23.330;2023-12-29T05:08:37;72.13;;;30.77;;
46561;SDS011;32289;42.688;23.330;2023-12-29T05:12:18;76.35;;;32.05;;
46561;SDS011;32289;42.688;23.330;2023-12-29T05:15:58;79.55;;;31.85;;
46561;SDS011;32289;42.688;23.330;2023-12-29T05:19:39;80.15;;;32.38;;
46561;SDS011;32289;42.688;23.330;2023-12-29T05:23:20;88.55;;;33.95;;
46561;SDS011;32289;42.688;23.330;2023-12-29T05:27:01;69.75;;;30.70;;
46561;SDS011;32289;42.688;23.330;2023-12-29T05:30:41;66.65;;;29.95;;
46561;SDS011;32289;42.688;23.330;2023-12-29T05:34:22;80.88;;;32.35;;
46561;SDS011;32289;42.688;23.330;2023-12-29T05:38:03;77.47;;;33.53;;
46561;SDS011;32289;42.688;23.330;2023-12-29T05:41:43;65.45;;;29.75;;
46561;SDS011;32289;42.688;23.330;2023-12-29T05:45:24;78.05;;;30.17;;
46561;SDS011;32289;42.688;23.330;2023-12-29T05:49:05;66.80;;;28.35;;
46561;SDS011;32289;42.688;23.330;2023-12-29T05:52:45;64.18;;;26.00;;
46561;SDS011;32289;42.688;23.330;2023-12-29T05:56:31;54.10;;;26.48;;
46561;SDS011;32289;42.688;23.330;2023-12-29T06:00:12;62.72;;;24.90;;
46561;SDS011;32289;42.688;23.330;2023-12-29T06:03:54;54.45;;;20.73;;
46561;SDS011;32289;42.688;23.330;2023-12-29T06:07:35;58.75;;;24.95;;
46561;SDS011;32289;42.688;23.330;2023-12-29T06:11:16;68.10;;;24.58;;
46561;SDS011;32289;42.688;23.330;2023-12-29T06:14:57;59.58;;;24.30;;
46561;SDS011;32289;42.688;23.330;2023-12-29T06:18:37;68.30;;;27.50;;
46561;SDS011;32289;42.688;23.330;2023-12-29T06:22:20;58.70;;;25.00;;
46561;SDS011;32289;42.688;23.330;2023-12-29T06:26:04;61.42;;;24.67;;
46561;SDS011;32289;42.688;23.330;2023-12-29T06:29:45;76.95;;;26.30;;
46561;SDS011;32289;42.688;23.330;2023-12-29T06:33:26;72.05;;;29.95;;
46561;SDS011;32289;42.688;23.330;2023-12-29T06:37:09;70.85;;;26.00;;
46561;SDS011;32289;42.688;23.330;2023-12-29T06:40:50;66.60;;;24.67;;
46561;SDS011;32289;42.688;23.330;2023-12-29T06:44:30;66.15;;;24.00;;
46561;SDS011;32289;42.688;23.330;2023-12-29T06:48:11;58.33;;;22.33;;
46561;SDS011;32289;42.688;23.330;2023-12-29T06:51:57;59.08;;;23.65;;
46561;SDS011;32289;42.688;23.330;2023-12-29T06:55:37;61.88;;;25.30;;
46561;SDS011;32289;42.688;23.330;2023-12-29T06:59:18;60.10;;;23.98;;
46561;SDS011;32289;42.688;23.330;2023-12-29T07:03:00;64.25;;;25.42;;
46561;SDS011;32289;42.688;23.330;2023-12-29T07:06:41;57.25;;;25.98;;
46561;SDS011;32289;42.688;23.330;2023-12-29T07:10:22;62.47;;;27.45;;
46561;SDS011;32289;42.688;23.330;2023-12-29T07:14:03;70.13;;;28.30;;
46561;SDS011;32289;42.688;23.330;2023-12-29T07:17:43;71.95;;;30.08;;
46561;SDS011;32289;42.688;23.330;2023-12-29T07:21:24;69.22;;;29.17;;
46561;SDS011;32289;42.688;23.330;2023-12-29T07:25:05;80.70;;;30.90;;
46561;SDS011;32289;42.688;23.330;2023-12-29T07:28:46;69.03;;;29.35;;
46561;SDS011;32289;42.688;23.330;2023-12-29T07:32:27;80.57;;;31.77;;
46561;SDS011;32289;42.688;23.330;2023-12-29T07:36:08;76.15;;;29.10;;
46561;SDS011;32289;42.688;23.330;2023-12-29T07:39:49;69.40;;;32.10;;
46561;SDS011;32289;42.688;23.330;2023-12-29T07:43:31;76.60;;;31.67;;
46561;SDS011;32289;42.688;23.330;2023-12-29T07:47:11;90.82;;;35.15;;
46561;SDS011;32289;42.688;23.330;2023-12-29T07:50:52;96.43;;;35.38;;
46561;SDS011;32289;42.688;23.330;2023-12-29T07:54:33;85.43;;;38.10;;
46561;SDS011;32289;42.688;23.330;2023-12-29T07:58:14;86.35;;;37.08;;
46561;SDS011;32289;42.688;23.330;2023-12-29T08:01:55;94.00;;;39.55;;
46561;SDS011;32289;42.688;23.330;2023-12-29T08:05:37;95.55;;;41.90;;
46561;SDS011;32289;42.688;23.330;2023-12-29T08:09:18;98.18;;;42.85;;
46561;SDS011;32289;42.688;23.330;2023-12-29T08:13:00;99.88;;;40.63;;
46561;SDS011;32289;42.688;23.330;2023-12-29T08:16:41;100.15;;;41.53;;
46561;SDS011;32289;42.688;23.330;2023-12-29T08:20:24;95.55;;;39.95;;
46561;SDS011;32289;42.688;23.330;2023-12-29T08:24:05;101.32;;;40.22;;
46561;SDS011;32289;42.688;23.330;2023-12-29T08:27:46;99.88;;;38.70;;
46561;SDS011;32289;42.688;23.330;2023-12-29T08:31:26;87.00;;;35.90;;
46561;SDS011;32289;42.688;23.330;2023-12-29T08:35:09;80.78;;;35.20;;
46561;SDS011;32289;42.688;23.330;2023-12-29T08:38:49;80.95;;;36.25;;
46561;SDS011;32289;42.688;23.330;2023-12-29T08:42:33;86.25;;;32.88;;
46561;SDS011;32289;42.688;23.330;2023-12-29T08:46:13;67.32;;;31.33;;
46561;SDS011;32289;42.688;23.330;2023-12-29T08:49:54;65.90;;;31.50;;
46561;SDS011;32289;42.688;23.330;2023-12-29T08:53:35;87.43;;;35.88;;
46561;SDS011;32289;42.688;23.330;2023-12-29T08:57:15;70.97;;;34.47;;
46561;SDS011;32289;42.688;23.330;2023-12-29T09:00:56;64.15;;;31.40;;
46561;SDS011;32289;42.688;23.330;2023-12-29T09:04:37;69.18;;;30.70;;
46561;SDS011;32289;42.688;23.330;2023-12-29T09:08:18;69.63;;;30.13;;
46561;SDS011;32289;42.688;23.330;2023-12-29T09:11:58;63.60;;;32.40;;
46561;SDS011;32289;42.688;23.330;2023-12-29T09:15:39;57.35;;;29.50;;
46561;SDS011;32289;42.688;23.330;2023-12-29T09:19:20;51.33;;;26.77;;
46561;SDS011;32289;42.688;23.330;2023-12-29T09:23:00;51.17;;;28.40;;
46561;SDS011;32289;42.688;23.330;2023-12-29T09:26:43;52.72;;;27.67;;
46561;SDS011;32289;42.688;23.330;2023-12-29T09:30:24;48.67;;;27.63;;
46561;SDS011;32289;42.688;23.330;2023-12-29T09:34:05;51.55;;;29.85;;
46561;SDS011;32289;42.688;23.330;2023-12-29T09:37:47;56.47;;;29.23;;
46561;SDS011;32289;42.688;23.330;2023-12-29T09:41:28;57.67;;;29.65;;
46561;SDS011;32289;42.688;23.330;2023-12-29T09:45:16;50.83;;;30.63;;
46561;SDS011;32289;42.688;23.330;2023-12-29T09:49:05;51.17;;;30.77;;
46561;SDS011;32289;42.688;23.330;2023-12-29T09:52:49;52.97;;;31.13;;
46561;SDS011;32289;42.688;23.330;2023-12-29T09:56:32;51.78;;;28.95;;
46561;SDS011;32289;42.688;23.330;2023-12-29T10:00:15;60.22;;;35.03;;
46561;SDS011;32289;42.688;23.330;2023-12-29T10:03:57;52.72;;;31.67;;
46561;SDS011;32289;42.688;23.330;2023-12-29T10:07:38;53.35;;;33.45;;
46561;SDS011;32289;42.688;23.330;2023-12-29T10:11:20;56.42;;;34.10;;
46561;SDS011;32289;42.688;23.330;2023-12-29T10:26:19;56.20;;;31.48;;
46561;SDS011;32289;42.688;23.330;2023-12-29T10:30:00;54.50;;;31.95;;
46561;SDS011;32289;42.688;23.330;2023-12-29T10:33:40;52.75;;;31.67;;
46561;SDS011;32289;42.688;23.330;2023-12-29T10:37:24;57.25;;;31.65;;
46561;SDS011;32289;42.688;23.330;2023-12-29T10:41:14;48.97;;;32.85;;
46561;SDS011;32289;42.688;23.330;2023-12-29T10:45:06;48.30;;;31.40;;
46561;SDS011;32289;42.688;23.330;2023-12-29T10:48:48;54.60;;;31.20;;
46561;SDS011;32289;42.688;23.330;2023-12-29T10:52:29;53.20;;;31.30;;
46561;SDS011;32289;42.688;23.330;2023-12-29T10:56:16;48.35;;;28.90;;
46561;SDS011;32289;42.688;23.330;2023-12-29T11:00:00;54.40;;;29.50;;
46561;SDS011;32289;42.688;23.330;2023-12-29T11:03:40;50.05;;;29.83;;
46561;SDS011;32289;42.688;23.330;2023-12-29T11:07:31;53.70;;;31.55;;
46561;SDS011;32289;42.688;23.330;2023-12-29T11:11:13;52.00;;;30.30;;
46561;SDS011;32289;42.688;23.330;2023-12-29T11:14:55;49.95;;;30.20;;
46561;SDS011;32289;42.688;23.330;2023-12-29T11:18:36;56.47;;;30.40;;
46561;SDS011;32289;42.688;23.330;2023-12-29T11:22:17;44.35;;;28.42;;
46561;SDS011;32289;42.688;23.330;2023-12-29T11:26:00;50.40;;;29.50;;
46561;SDS011;32289;42.688;23.330;2023-12-29T11:29:43;57.00;;;32.92;;
46561;SDS011;32289;42.688;23.330;2023-12-29T11:33:34;53.83;;;32.33;;
46561;SDS011;32289;42.688;23.330;2023-12-29T11:37:26;53.78;;;32.53;;
46561;SDS011;32289;42.688;23.330;2023-12-29T11:44:52;54.72;;;30.75;;
46561;SDS011;32289;42.688;23.330;2023-12-29T11:52:43;50.83;;;30.40;;
46561;SDS011;32289;42.688;23.330;2023-12-29T11:56:26;84.38;;;41.85;;
46561;SDS011;32289;42.688;23.330;2023-12-29T12:00:11;50.80;;;31.23;;
46561;SDS011;32289;42.688;23.330;2023-12-29T12:03:52;50.42;;;31.00;;
46561;SDS011;32289;42.688;23.330;2023-12-29T12:15:54;60.20;;;31.80;;
46561;SDS011;32289;42.688;23.330;2023-12-29T12:19:12;53.92;;;31.08;;
46561;SDS011;32289;42.688;23.330;2023-12-29T12:22:57;53.92;;;30.70;;
46561;SDS011;32289;42.688;23.330;2023-12-29T12:26:42;52.20;;;30.42;;
46561;SDS011;32289;42.688;23.330;2023-12-29T12:30:23;54.17;;;29.88;;
46561;SDS011;32289;42.688;23.330;2023-12-29T12:34:04;51.67;;;31.33;;
46561;SDS011;32289;42.688;23.330;2023-12-29T12:37:46;54.33;;;31.60;;
46561;SDS011;32289;42.688;23.330;2023-12-29T12:41:27;51.92;;;30.52;;
46561;SDS011;32289;42.688;23.330;2023-12-29T12:45:12;64.22;;;37.20;;
46561;SDS011;32289;42.688;23.330;2023-12-29T12:48:58;57.45;;;33.35;;
46561;SDS011;32289;42.688;23.330;2023-12-29T12:52:39;59.00;;;31.92;;
46561;SDS011;32289;42.688;23.330;2023-12-29T12:56:21;60.92;;;31.92;;
46561;SDS011;32289;42.688;23.330;2023-12-29T13:00:02;56.03;;;31.13;;
46561;SDS011;32289;42.688;23.330;2023-12-29T13:03:43;64.45;;;30.85;;
46561;SDS011;32289;42.688;23.330;2023-12-29T13:07:25;54.72;;;29.88;;
46561;SDS011;32289;42.688;23.330;2023-12-29T13:11:06;54.22;;;28.27;;
46561;SDS011;32289;42.688;23.330;2023-12-29T13:14:47;58.67;;;27.77;;
46561;SDS011;32289;42.688;23.330;2023-12-29T13:18:31;42.15;;;23.83;;
46561;SDS011;32289;42.688;23.330;2023-12-29T13:22:12;52.88;;;26.30;;
46561;SDS011;32289;42.688;23.330;2023-12-29T13:25:57;57.90;;;25.67;;
46561;SDS011;32289;42.688;23.330;2023-12-29T13:29:41;53.60;;;23.92;;
46561;SDS011;32289;42.688;23.330;2023-12-29T13:37:42;39.38;;;19.95;;
46561;SDS011;32289;42.688;23.330;2023-12-29T13:41:24;38.33;;;18.05;;
46561;SDS011;32289;42.688;23.330;2023-12-29T13:45:08;31.92;;;15.45;;
46561;SDS011;32289;42.688;23.330;2023-12-29T13:48:50;34.08;;;15.07;;
46561;SDS011;32289;42.688;23.330;2023-12-29T13:52:35;41.67;;;16.80;;
46561;SDS011;32289;42.688;23.330;2023-12-29T13:56:16;36.08;;;16.58;;
46561;SDS011;32289;42.688;23.330;2023-12-29T13:59:57;33.42;;;15.57;;
46561;SDS011;32289;42.688;23.330;2023-12-29T14:04:02;46.22;;;21.65;;
46561;SDS011;32289;42.688;23.330;2023-12-29T14:07:51;44.97;;;17.38;;
46561;SDS011;32289;42.688;23.330;2023-12-29T14:11:44;29.17;;;15.63;;
46561;SDS011;32289;42.688;23.330;2023-12-29T14:15:25;34.63;;;15.57;;
46561;SDS011;32289;42.688;23.330;2023-12-29T14:19:06;36.33;;;15.88;;
46561;SDS011;32289;42.688;23.330;2023-12-29T14:22:47;43.00;;;15.50;;
46561;SDS011;32289;42.688;23.330;2023-12-29T14:26:27;35.33;;;15.25;;
46561;SDS011;32289;42.688;23.330;2023-12-29T14:30:19;33.80;;;15.90;;
46561;SDS011;32289;42.688;23.330;2023-12-29T14:33:59;48.90;;;20.90;;
46561;SDS011;32289;42.688;23.330;2023-12-29T14:37:40;57.38;;;22.73;;
46561;SDS011;32289;42.688;23.330;2023-12-29T14:41:21;52.20;;;19.08;;
46561;SDS011;32289;42.688;23.330;2023-12-29T14:45:02;63.15;;;24.17;;
46561;SDS011;32289;42.688;23.330;2023-12-29T14:48:44;39.95;;;18.45;;
46561;SDS011;32289;42.688;23.330;2023-12-29T14:52:24;45.75;;;21.13;;
46561;SDS011;32289;42.688;23.330;2023-12-29T14:56:05;45.80;;;16.17;;
46561;SDS011;32289;42.688;23.330;2023-12-29T14:59:46;46.97;;;18.75;;
46561;SDS011;32289;42.688;23.330;2023-12-29T15:03:27;44.00;;;16.73;;
46561;SDS011;32289;42.688;23.330;2023-12-29T15:07:08;41.05;;;15.25;;
46561;SDS011;32289;42.688;23.330;2023-12-29T15:10:48;53.40;;;20.27;;
46561;SDS011;32289;42.688;23.330;2023-12-29T15:14:29;50.38;;;18.48;;
46561;SDS011;32289;42.688;23.330;2023-12-29T15:18:10;44.85;;;15.73;;
46561;SDS011;32289;42.688;23.330;2023-12-29T15:21:50;32.55;;;13.75;;
46561;SDS011;32289;42.688;23.330;2023-12-29T15:25:33;35.70;;;13.80;;
46561;SDS011;32289;42.688;23.330;2023-12-29T15:29:14;64.90;;;22.65;;
46561;SDS011;32289;42.688;23.330;2023-12-29T15:32:55;36.33;;;12.27;;
46561;SDS011;32289;42.688;23.330;2023-12-29T15:36:35;40.97;;;13.43;;
46561;SDS011;32289;42.688;23.330;2023-12-29T15:40:16;48.72;;;16.77;;
46561;SDS011;32289;42.688;23.330;2023-12-29T15:43:57;51.35;;;16.52;;
46561;SDS011;32289;42.688;23.330;2023-12-29T15:47:38;46.85;;;16.05;;
46561;SDS011;32289;42.688;23.330;2023-12-29T15:51:18;31.23;;;11.88;;
46561;SDS011;32289;42.688;23.330;2023-12-29T15:54:59;28.98;;;11.85;;
46561;SDS011;32289;42.688;23.330;2023-12-29T15:58:40;33.47;;;13.77;;
46561;SDS011;32289;42.688;23.330;2023-12-29T16:02:21;29.83;;;13.43;;
46561;SDS011;32289;42.688;23.330;2023-12-29T16:06:01;29.50;;;11.63;;
46561;SDS011;32289;42.688;23.330;2023-12-29T16:09:43;24.17;;;10.63;;
46561;SDS011;32289;42.688;23.330;2023-12-29T16:13:24;19.08;;;8.48;;
46561;SDS011;32289;42.688;23.330;2023-12-29T16:17:04;16.13;;;8.43;;
46561;SDS011;32289;42.688;23.330;2023-12-29T16:20:45;40.92;;;11.63;;
46561;SDS011;32289;42.688;23.330;2023-12-29T16:24:26;34.33;;;12.23;;
46561;SDS011;32289;42.688;23.330;2023-12-29T16:28:07;36.28;;;12.50;;
46561;SDS011;32289;42.688;23.330;2023-12-29T16:31:47;33.20;;;13.18;;
46561;SDS011;32289;42.688;23.330;2023-12-29T16:35:28;24.17;;;11.65;;
46561;SDS011;32289;42.688;23.330;2023-12-29T16:39:09;26.65;;;10.95;;
46561;SDS011;32289;42.688;23.330;2023-12-29T16:42:50;34.33;;;14.48;;
46561;SDS011;32289;42.688;23.330;2023-12-29T16:46:32;40.30;;;14.02;;
46561;SDS011;32289;42.688;23.330;2023-12-29T16:50:13;34.55;;;12.98;;
46561;SDS011;32289;42.688;23.330;2023-12-29T16:53:53;37.25;;;13.00;;
46561;SDS011;32289;42.688;23.330;2023-12-29T16:57:34;38.83;;;13.10;;
46561;SDS011;32289;42.688;23.330;2023-12-29T17:01:15;37.35;;;13.90;;
46561;SDS011;32289;42.688;23.330;2023-12-29T17:04:57;30.70;;;12.23;;
46561;SDS011;32289;42.688;23.330;2023-12-29T17:08:38;29.15;;;12.68;;
46561;SDS011;32289;42.688;23.330;2023-12-29T17:12:19;41.58;;;15.18;;
46561;SDS011;32289;42.688;23.330;2023-12-29T17:15:59;32.85;;;13.18;;
46561;SDS011;32289;42.688;23.330;2023-12-29T17:19:42;43.10;;;12.80;;
46561;SDS011;32289;42.688;23.330;2023-12-29T17:23:22;44.92;;;14.55;;
46561;SDS011;32289;42.688;23.330;2023-12-29T17:27:03;42.70;;;14.27;;
46561;SDS011;32289;42.688;23.330;2023-12-29T17:30:44;33.22;;;14.20;;
46561;SDS011;32289;42.688;23.330;2023-12-29T17:34:25;32.40;;;13.10;;
46561;SDS011;32289;42.688;23.330;2023-12-29T17:38:06;52.10;;;19.67;;
46561;SDS011;32289;42.688;23.330;2023-12-29T17:41:46;33.72;;;13.13;;
46561;SDS011;32289;42.688;23.330;2023-12-29T17:45:27;43.90;;;13.05;;
46561;SDS011;32289;42.688;23.330;2023-12-29T17:49:08;29.98;;;11.52;;
46561;SDS011;32289;42.688;23.330;2023-12-29T17:52:49;27.75;;;10.98;;
46561;SDS011;32289;42.688;23.330;2023-12-29T17:56:29;32.35;;;10.82;;
46561;SDS011;32289;42.688;23.330;2023-12-29T18:00:10;33.90;;;13.57;;
46561;SDS011;32289;42.688;23.330;2023-12-29T18:03:51;38.15;;;14.00;;
46561;SDS011;32289;42.688;23.330;2023-12-29T18:07:32;37.28;;;13.80;;
46561;SDS011;32289;42.688;23.330;2023-12-29T18:11:13;25.75;;;12.00;;
46561;SDS011;32289;42.688;23.330;2023-12-29T18:14:53;34.58;;;12.98;;
46561;SDS011;32289;42.688;23.330;2023-12-29T18:18:34;26.55;;;10.57;;
46561;SDS011;32289;42.688;23.330;2023-12-29T18:22:15;39.65;;;15.27;;
46561;SDS011;32289;42.688;23.330;2023-12-29T18:25:57;28.83;;;13.45;;
46561;SDS011;32289;42.688;23.330;2023-12-29T18:29:39;33.72;;;12.57;;
46561;SDS011;32289;42.688;23.330;2023-12-29T18:33:21;34.00;;;12.60;;
46561;SDS011;32289;42.688;23.330;2023-12-29T18:37:04;30.42;;;11.82;;
46561;SDS011;32289;42.688;23.330;2023-12-29T18:40:45;38.88;;;13.30;;
46561;SDS011;32289;42.688;23.330;2023-12-29T18:44:25;33.72;;;13.45;;
46561;SDS011;32289;42.688;23.330;2023-12-29T18:48:06;36.25;;;13.75;;
46561;SDS011;32289;42.688;23.330;2023-12-29T18:51:47;34.22;;;14.80;;
46561;SDS011;32289;42.688;23.330;2023-12-29T18:55:31;40.00;;;14.55;;
46561;SDS011;32289;42.688;23.330;2023-12-29T18:59:12;40.30;;;15.38;;
46561;SDS011;32289;42.688;23.330;2023-12-29T19:02:54;38.25;;;14.63;;
46561;SDS011;32289;42.688;23.330;2023-12-29T19:06:35;32.92;;;13.07;;
46561;SDS011;32289;42.688;23.330;2023-12-29T19:10:17;27.48;;;11.95;;
46561;SDS011;32289;42.688;23.330;2023-12-29T19:13:58;41.15;;;15.02;;
46561;SDS011;32289;42.688;23.330;2023-12-29T19:17:38;37.13;;;15.35;;
46561;SDS011;32289;42.688;23.330;2023-12-29T19:21:19;28.02;;;11.43;;
46561;SDS011;32289;42.688;23.330;2023-12-29T19:25:03;28.20;;;11.65;;
46561;SDS011;32289;42.688;23.330;2023-12-29T19:28:45;35.65;;;12.07;;
46561;SDS011;32289;42.688;23.330;2023-12-29T19:32:26;40.53;;;13.18;;
46561;SDS011;32289;42.688;23.330;2023-12-29T19:36:07;33.22;;;12.18;;
46561;SDS011;32289;42.688;23.330;2023-12-29T19:39:49;35.22;;;13.38;;
46561;SDS011;32289;42.688;23.330;2023-12-29T19:43:30;27.75;;;13.77;;
46561;SDS011;32289;42.688;23.330;2023-12-29T19:47:11;33.15;;;13.80;;
46561;SDS011;32289;42.688;23.330;2023-12-29T19:50:53;23.67;;;10.73;;
46561;SDS011;32289;42.688;23.330;2023-12-29T19:54:34;32.17;;;13.05;;
46561;SDS011;32289;42.688;23.330;2023-12-29T19:58:15;24.65;;;11.07;;
46561;SDS011;32289;42.688;23.330;2023-12-29T20:01:56;45.78;;;19.65;;
46561;SDS011;32289;42.688;23.330;2023-12-29T20:05:37;28.38;;;13.63;;
46561;SDS011;32289;42.688;23.330;2023-12-29T20:09:18;35.33;;;14.00;;
46561;SDS011;32289;42.688;23.330;2023-12-29T20:12:59;90.82;;;34.60;;
46561;SDS011;32289;42.688;23.330;2023-12-29T20:16:40;99.50;;;37.47;;
46561;SDS011;32289;42.688;23.330;2023-12-29T20:20:21;77.20;;;31.25;;
46561;SDS011;32289;42.688;23.330;2023-12-29T20:24:02;95.97;;;39.85;;
46561;SDS011;32289;42.688;23.330;2023-12-29T20:27:43;87.72;;;35.35;;
46561;SDS011;32289;42.688;23.330;2023-12-29T20:31:27;84.75;;;36.08;;
46561;SDS011;32289;42.688;23.330;2023-12-29T20:35:11;76.65;;;34.33;;
46561;SDS011;32289;42.688;23.330;2023-12-29T20:38:54;85.45;;;34.50;;
46561;SDS011;32289;42.688;23.330;2023-12-29T20:42:38;83.28;;;30.55;;
46561;SDS011;32289;42.688;23.330;2023-12-29T20:46:21;91.78;;;35.08;;
46561;SDS011;32289;42.688;23.330;2023-12-29T20:50:02;56.10;;;28.13;;
46561;SDS011;32289;42.688;23.330;2023-12-29T20:53:44;71.57;;;26.30;;
46561;SDS011;32289;42.688;23.330;2023-12-29T20:57:26;72.75;;;27.77;;
46561;SDS011;32289;42.688;23.330;2023-12-29T21:01:06;64.47;;;28.23;;
46561;SDS011;32289;42.688;23.330;2023-12-29T21:04:48;52.90;;;25.92;;
46561;SDS011;32289;42.688;23.330;2023-12-29T21:08:28;67.60;;;27.23;;
46561;SDS011;32289;42.688;23.330;2023-12-29T21:12:12;60.45;;;28.05;;
46561;SDS011;32289;42.688;23.330;2023-12-29T21:15:53;62.65;;;27.20;;
46561;SDS011;32289;42.688;23.330;2023-12-29T21:19:34;57.25;;;26.55;;
46561;SDS011;32289;42.688;23.330;2023-12-29T21:23:15;52.70;;;23.65;;
46561;SDS011;32289;42.688;23.330;2023-12-29T21:26:55;62.00;;;24.08;;
46561;SDS011;32289;42.688;23.330;2023-12-29T21:30:37;57.53;;;24.48;;
46561;SDS011;32289;42.688;23.330;2023-12-29T21:34:17;66.53;;;25.48;;
46561;SDS011;32289;42.688;23.330;2023-12-29T21:37:59;68.70;;;23.25;;
46561;SDS011;32289;42.688;23.330;2023-12-29T21:41:40;53.95;;;21.75;;
46561;SDS011;32289;42.688;23.330;2023-12-29T21:45:20;53.42;;;24.33;;
46561;SDS011;32289;42.688;23.330;2023-12-29T21:49:01;54.30;;;23.48;;